Time;durP1;ratioP1;P1;durP2;ratioP2;P2;SDS_P1;SDS_P2;PMS_P1;PMS_P2;Temp;Humidity;BMP_temperature;BMP_pressure;BME280_temperature;BME280_humidity;BME280_pressure;Samples;Min_cycle;Max_cycle;Signal;HPM_P1;HPM_P2
2021/04/23 00:02:11;;;;;;;6.13;3.78;;;;;;;3.10;68.80;100352.28;5032792;28;20025;-61
2021/04/23 00:04:37;;;;;;;5.80;3.45;;;;;;;3.08;69.38;100354.28;5033030;28;20029;-61
2021/04/23 00:07:02;;;;;;;9.73;3.95;;;;;;;3.06;69.51;100352.78;5032634;28;20048;-62
2021/04/23 00:09:35;;;;;;;12.32;4.15;;;;;;;3.00;69.64;100352.47;5033110;28;20022;-61
2021/04/23 00:12:09;;;;;;;7.80;3.85;;;;;;;2.96;69.63;100355.59;5032723;28;20093;-61
2021/04/23 00:15:00;;;;;;;7.53;3.55;;;;;;;2.95;72.35;100356.59;5032984;28;20029;-61
2021/04/23 00:17:26;;;;;;;9.52;3.83;;;;;;;2.89;70.35;100347.47;5031412;28;20403;-61
2021/04/23 00:19:51;;;;;;;7.45;3.90;;;;;;;2.84;70.47;100356.91;5032677;28;20026;-61
2021/04/23 00:22:17;;;;;;;8.75;4.00;;;;;;;2.71;70.73;100358.22;5031209;28;20022;-61
2021/04/23 00:24:42;;;;;;;7.07;3.75;;;;;;;2.63;70.94;100355.56;5032775;28;20017;-62
2021/04/23 00:27:08;;;;;;;14.50;4.80;;;;;;;2.94;70.19;100354.94;5032357;28;20033;-61
2021/04/23 00:29:34;;;;;;;8.90;3.78;;;;;;;2.93;69.73;100361.22;5032666;28;20034;-62
2021/04/23 00:34:44;;;;;;;10.77;4.18;;;;;;;3.00;69.67;100356.94;5032692;28;20231;-61
2021/04/23 00:37:09;;;;;;;9.95;3.88;;;;;;;2.99;69.90;100353.44;5031166;28;20026;-62
2021/04/23 00:39:35;;;;;;;9.60;4.30;;;;;;;3.22;69.17;100356.25;5032740;28;20021;-61
2021/04/23 00:42:05;;;;;;;7.82;3.75;;;;;;;3.10;69.43;100351.47;5032833;28;20073;-61
2021/04/23 00:44:30;;;;;;;11.80;4.28;;;;;;;3.16;69.08;100356.91;5032498;28;20109;-61
2021/04/23 00:46:56;;;;;;;8.20;4.00;;;;;;;3.01;70.27;100359.41;5032418;28;20030;-61
2021/04/23 00:49:21;;;;;;;7.60;3.80;;;;;;;3.13;69.68;100359.91;5031456;28;20021;-62
2021/04/23 00:51:56;;;;;;;6.85;3.97;;;;;;;3.19;69.10;100359.22;5031141;28;20032;-62
2021/04/23 00:54:22;;;;;;;7.15;3.85;;;;;;;3.19;71.20;100358.41;5032420;28;20029;-62
2021/04/23 00:56:48;;;;;;;9.40;4.32;;;;;;;3.17;72.44;100353.28;5032133;28;20091;-62
2021/04/23 00:59:13;;;;;;;6.55;3.90;;;;;;;3.14;73.24;100363.38;5032708;28;20032;-62
2021/04/23 01:01:41;;;;;;;7.30;3.40;;;;;;;3.22;71.17;100358.91;5032175;28;20025;-62
2021/04/23 01:04:08;;;;;;;6.30;3.63;;;;;;;3.19;69.34;100361.88;5033781;28;20387;-62
2021/04/23 01:06:34;;;;;;;6.07;3.47;;;;;;;3.13;69.91;100356.44;5035495;28;20494;-61
2021/04/23 01:09:04;;;;;;;5.90;3.40;;;;;;;3.15;69.73;100357.91;5034749;28;20033;-62
2021/04/23 01:11:30;;;;;;;10.18;3.75;;;;;;;3.00;70.11;100354.28;5035782;28;20025;-62
2021/04/23 01:13:55;;;;;;;8.77;3.72;;;;;;;3.10;72.15;100354.94;5034670;28;20033;-62
2021/04/23 01:16:23;;;;;;;8.63;3.92;;;;;;;3.08;70.70;100351.63;5035564;28;20391;-62
2021/04/23 01:18:49;;;;;;;8.20;3.70;;;;;;;3.00;70.41;100344.50;5035713;28;20063;-61
2021/04/23 01:21:17;;;;;;;7.10;4.00;;;;;;;2.95;71.02;100344.19;5035478;28;20083;-61
2021/04/23 01:23:43;;;;;;;7.50;3.78;;;;;;;2.95;70.85;100349.47;5034289;28;20035;-62
2021/04/23 01:26:09;;;;;;;10.70;4.15;;;;;;;2.86;70.83;100357.59;5035134;28;20112;-61
2021/04/23 01:28:34;;;;;;;6.60;3.75;;;;;;;2.86;71.69;100360.22;5035573;28;20052;-61
2021/04/23 01:31:00;;;;;;;7.95;3.70;;;;;;;2.79;72.54;100357.41;5033895;28;20033;-61
2021/04/23 01:33:26;;;;;;;7.57;3.88;;;;;;;2.91;72.05;100361.38;5035282;28;20037;-61
2021/04/23 01:35:51;;;;;;;9.30;3.72;;;;;;;2.93;70.68;100355.94;5035072;28;20029;-61
2021/04/23 01:38:17;;;;;;;7.10;4.07;;;;;;;2.87;71.18;100361.88;5035154;28;20030;-61
2021/04/23 01:40:42;;;;;;;6.35;3.92;;;;;;;2.79;71.62;100363.53;5035162;28;20033;-61
2021/04/23 01:43:08;;;;;;;9.82;4.20;;;;;;;2.80;71.46;100365.19;5035466;28;20029;-61
2021/04/23 01:45:33;;;;;;;9.63;4.75;;;;;;;2.83;71.57;100374.63;5033953;28;20033;-61
2021/04/23 01:47:59;;;;;;;7.88;3.97;;;;;;;2.71;72.38;100379.41;5035287;28;20025;-61
2021/04/23 01:50:24;;;;;;;9.30;4.22;;;;;;;2.77;71.31;100373.47;5035149;28;20034;-61
2021/04/23 01:52:50;;;;;;;8.02;3.70;;;;;;;2.71;71.63;100379.41;5034943;28;20383;-61
2021/04/23 01:55:18;;;;;;;7.88;4.00;;;;;;;2.70;72.06;100376.94;5035275;28;20103;-61
2021/04/23 01:57:43;;;;;;;7.72;4.43;;;;;;;2.59;72.51;100378.06;5033803;28;20120;-61
2021/04/23 02:00:29;;;;;;;8.43;4.07;;;;;;;2.62;72.28;100367.16;5033737;28;20080;-61
2021/04/23 02:02:55;;;;;;;9.52;4.72;;;;;;;2.50;72.17;100368.47;5034944;28;20171;-60
2021/04/23 02:05:20;;;;;;;14.45;4.60;;;;;;;2.58;72.33;100379.88;5034731;28;20034;-61
2021/04/23 02:07:46;;;;;;;7.88;4.95;;;;;;;2.64;73.33;100380.22;5034723;28;20403;-61
2021/04/23 02:10:14;;;;;;;9.85;4.55;;;;;;;2.57;72.56;100388.81;5034622;28;20030;-61
2021/04/23 02:12:40;;;;;;;7.38;4.30;;;;;;;2.55;73.69;100384.69;5034583;28;20474;-61
2021/04/23 02:15:08;;;;;;;11.05;4.57;;;;;;;2.58;76.50;100394.94;5034739;28;20030;-61
2021/04/23 02:17:33;;;;;;;9.82;4.63;;;;;;;2.58;75.95;100390.47;5033277;28;20060;-61
2021/04/23 02:19:59;;;;;;;6.88;4.10;;;;;;;2.32;73.17;100389.72;5034695;28;20472;-61
2021/04/23 02:22:24;;;;;;;10.23;5.00;;;;;;;2.20;73.76;100391.84;5034606;28;20025;-61
2021/04/23 02:24:50;;;;;;;10.93;4.72;;;;;;;2.01;74.58;100397.38;5034729;28;20026;-61
2021/04/23 02:27:15;;;;;;;9.07;5.18;;;;;;;2.03;75.02;100395.41;5034331;28;20037;-62
2021/04/23 02:29:40;;;;;;;8.32;5.20;;;;;;;2.04;74.48;100400.53;5033285;28;20430;-61
2021/04/23 02:32:06;;;;;;;9.30;4.88;;;;;;;2.23;75.43;100401.28;5033006;28;20468;-61
2021/04/23 02:34:31;;;;;;;7.78;4.93;;;;;;;2.27;74.24;100398.16;5034306;28;20025;-62
2021/04/23 02:36:57;;;;;;;8.82;4.53;;;;;;;2.00;74.58;100406.28;5032935;28;20383;-62
2021/04/23 02:39:22;;;;;;;10.07;4.80;;;;;;;2.00;74.73;100406.28;5034259;28;20507;-62
2021/04/23 02:41:50;;;;;;;11.57;4.90;;;;;;;2.00;75.96;100406.28;5033979;28;20029;-61
2021/04/23 02:44:16;;;;;;;9.25;5.63;;;;;;;1.88;75.64;100405.75;5034108;28;20030;-62
2021/04/23 02:46:41;;;;;;;7.82;4.32;;;;;;;1.86;75.73;100405.91;5033767;28;20021;-62
2021/04/23 02:49:07;;;;;;;8.00;5.35;;;;;;;1.75;75.95;100403.53;5034391;28;20021;-61
2021/04/23 02:51:34;;;;;;;8.98;5.38;;;;;;;1.89;77.70;100402.94;5033776;28;20026;-62
2021/04/23 02:54:00;;;;;;;12.57;5.47;;;;;;;1.90;76.17;100407.25;5033922;28;20467;-62
2021/04/23 02:56:25;;;;;;;10.85;5.60;;;;;;;1.98;75.88;100410.94;5033679;28;20029;-62
2021/04/23 02:58:51;;;;;;;8.65;4.97;;;;;;;2.01;75.42;100408.78;5033998;28;20021;-62
2021/04/23 03:01:19;;;;;;;9.98;5.40;;;;;;;2.01;76.14;100421.19;5016011;28;20376;-62
2021/04/23 03:03:45;;;;;;;8.32;5.20;;;;;;;1.88;75.73;100425.09;5033812;28;20044;-62
2021/04/23 03:06:11;;;;;;;10.52;5.10;;;;;;;1.71;75.81;100412.75;5033531;28;20049;-62
2021/04/23 03:08:37;;;;;;;10.32;5.00;;;;;;;1.53;76.55;100420.72;5033759;28;20033;-62
2021/04/23 03:11:14;;;;;;;10.13;4.97;;;;;;;1.54;76.23;100421.56;5033566;28;20033;-62
2021/04/23 03:13:49;;;;;;;12.73;5.25;;;;;;;1.46;77.01;100424.97;5033732;28;20056;-62
2021/04/23 03:16:15;;;;;;;9.68;5.50;;;;;;;1.49;77.89;100425.47;5032236;28;20091;-62
2021/04/23 03:18:41;;;;;;;11.82;5.30;;;;;;;1.43;78.79;100420.00;5033533;28;20053;-62
2021/04/23 03:21:07;;;;;;;12.13;5.57;;;;;;;1.45;77.62;100424.16;5033630;28;20037;-62
2021/04/23 03:23:33;;;;;;;9.32;4.95;;;;;;;1.27;77.03;100428.59;5033541;28;20451;-62
2021/04/23 03:25:59;;;;;;;8.63;5.07;;;;;;;1.12;77.66;100422.22;5032956;28;20071;-62
2021/04/23 03:28:25;;;;;;;12.73;5.80;;;;;;;1.42;78.07;100428.91;5033186;28;20025;-62
2021/04/23 03:30:51;;;;;;;9.68;6.03;;;;;;;1.47;80.79;100427.47;5033056;28;20491;-62
2021/04/23 03:33:16;;;;;;;10.35;5.53;;;;;;;1.42;78.08;100426.25;5032200;28;20025;-62
2021/04/23 03:35:47;;;;;;;12.68;5.78;;;;;;;1.50;78.47;100427.16;5033050;28;20030;-62
2021/04/23 03:38:12;;;;;;;9.73;5.57;;;;;;;1.59;77.68;100427.22;5032269;28;20109;-62
2021/04/23 03:40:38;;;;;;;8.85;5.40;;;;;;;1.50;81.15;100432.44;5031842;28;20112;-62
2021/04/23 03:43:05;;;;;;;10.70;5.45;;;;;;;1.59;79.20;100432.50;5033172;28;20026;-62
2021/04/23 03:45:30;;;;;;;8.52;5.13;;;;;;;1.69;77.68;100431.41;5033349;28;20048;-62
2021/04/23 03:47:55;;;;;;;10.55;5.70;;;;;;;1.69;79.10;100435.84;5031814;28;20479;-62
2021/04/23 03:50:23;;;;;;;11.43;5.60;;;;;;;1.68;77.74;100434.22;5033094;28;20091;-62
2021/04/23 03:52:49;;;;;;;12.55;5.90;;;;;;;1.66;77.40;100430.88;5031929;28;20025;-62
2021/04/23 03:55:18;;;;;;;11.68;5.20;;;;;;;1.69;76.97;100443.78;5032998;28;20052;-62
2021/04/23 03:57:43;;;;;;;8.30;5.13;;;;;;;1.65;76.94;100437.19;5033008;28;20061;-62
2021/04/23 04:00:13;;;;;;;15.02;5.35;;;;;;;1.61;77.23;100433.16;5033082;28;20025;-62
2021/04/23 04:02:41;;;;;;;9.63;5.80;;;;;;;1.60;77.39;100439.41;5031556;28;20032;-62
2021/04/23 04:05:10;;;;;;;11.02;5.55;;;;;;;1.57;77.83;100437.09;5033041;28;20024;-62
2021/04/23 04:07:36;;;;;;;11.35;5.93;;;;;;;1.59;77.34;100445.69;5031619;28;20129;-62
2021/04/23 04:10:01;;;;;;;17.00;6.15;;;;;;;1.63;76.92;100444.41;5033128;28;20029;-62
2021/04/23 04:12:27;;;;;;;11.00;5.88;;;;;;;1.60;77.43;100452.63;5032731;28;20022;-62
2021/04/23 04:14:52;;;;;;;11.73;5.93;;;;;;;1.46;77.25;100454.84;5032847;28;20029;-62
2021/04/23 04:17:18;;;;;;;9.93;5.38;;;;;;;1.40;77.24;100458.13;5032532;28;20026;-62
2021/04/23 04:19:43;;;;;;;10.25;5.53;;;;;;;1.28;78.17;100456.69;5032882;28;20025;-62
2021/04/23 04:22:09;;;;;;;9.82;5.40;;;;;;;1.24;78.04;100463.25;5032707;28;20080;-62
2021/04/23 04:24:34;;;;;;;11.65;5.05;;;;;;;1.08;78.45;100459.50;5032897;28;20072;-62
2021/04/23 04:27:07;;;;;;;8.05;5.78;;;;;;;1.23;78.14;100461.63;5032487;28;20025;-62
2021/04/23 04:29:32;;;;;;;9.70;6.30;;;;;;;1.39;78.38;100472.31;5031977;28;20032;-62
2021/04/23 04:31:58;;;;;;;13.20;5.60;;;;;;;1.23;78.49;100466.91;5032462;28;20391;-62
2021/04/23 04:34:23;;;;;;;12.23;6.60;;;;;;;1.44;78.17;100475.31;5032957;28;20029;-63
2021/04/23 04:36:48;;;;;;;9.65;5.82;;;;;;;1.79;76.57;100473.59;5031442;28;20387;-61
2021/04/23 04:39:14;;;;;;;11.65;5.90;;;;;;;1.99;75.07;100483.97;5034408;28;20033;-61
2021/04/23 04:41:39;;;;;;;11.20;5.40;;;;;;;2.06;74.78;100471.78;5036304;28;20044;-61
2021/04/23 04:44:05;;;;;;;16.88;5.95;;;;;;;2.36;73.67;100481.84;5036342;28;20036;-61
2021/04/23 04:46:30;;;;;;;9.55;6.38;;;;;;;2.52;72.48;100480.25;5036161;28;20064;-61
2021/04/23 04:48:56;;;;;;;13.23;5.90;;;;;;;2.72;71.77;100481.69;5036359;28;20075;-61
2021/04/23 04:51:21;;;;;;;14.15;6.03;;;;;;;3.13;70.88;100487.06;5036292;28;20060;-61
2021/04/23 04:53:47;;;;;;;13.43;5.65;;;;;;;3.65;69.04;100485.94;5036393;28;20036;-63
2021/04/23 04:56:14;;;;;;;12.75;5.47;;;;;;;3.96;67.49;100494.00;5036106;28;20053;-62
2021/04/23 04:58:42;;;;;;;8.40;5.13;;;;;;;3.83;66.94;100491.06;5036296;28;20026;-62
2021/04/23 05:01:07;;;;;;;16.98;5.00;;;;;;;3.90;66.83;100494.69;5036176;28;20087;-62
2021/04/23 05:03:33;;;;;;;8.93;5.25;;;;;;;4.22;65.55;100500.91;5035139;28;20026;-62
2021/04/23 05:05:58;;;;;;;10.32;4.68;;;;;;;5.31;62.10;100500.06;5034384;28;20029;-62
2021/04/23 05:08:24;;;;;;;10.23;4.38;;;;;;;6.58;57.43;100510.88;5035743;28;20072;-62
2021/04/23 05:10:52;;;;;;;8.52;4.47;;;;;;;7.46;54.70;100503.69;5035628;28;20036;-62
2021/04/23 05:13:17;;;;;;;9.50;4.88;;;;;;;8.40;51.66;100505.22;5036146;28;20022;-62
2021/04/23 05:15:43;;;;;;;9.77;4.28;;;;;;;8.32;51.63;100519.53;5035750;28;20467;-62
2021/04/23 05:18:08;;;;;;;13.27;4.80;;;;;;;10.69;45.15;100523.03;5035676;28;20392;-62
2021/04/23 05:20:34;;;;;;;12.57;4.55;;;;;;;10.91;43.64;100527.06;5034174;28;20033;-62
2021/04/23 05:23:00;;;;;;;10.88;4.10;;;;;;;11.11;42.82;100528.84;5035655;28;20057;-62
2021/04/23 05:25:26;;;;;;;9.07;3.80;;;;;;;11.01;42.28;100535.50;5035613;28;20486;-62
2021/04/23 05:27:51;;;;;;;7.05;3.70;;;;;;;13.02;37.66;100535.44;5035435;28;20075;-62
2021/04/23 05:30:19;;;;;;;9.80;4.18;;;;;;;12.66;37.99;100534.44;5035817;28;20029;-62
2021/04/23 05:32:44;;;;;;;10.60;4.30;;;;;;;11.82;39.98;100542.00;5034467;28;20053;-62
2021/04/23 05:35:11;;;;;;;6.60;3.88;;;;;;;11.54;40.71;100541.59;5035364;28;20021;-62
2021/04/23 05:37:37;;;;;;;9.60;4.30;;;;;;;10.96;42.05;100543.34;5035360;28;20041;-62
2021/04/23 05:40:04;;;;;;;7.53;4.00;;;;;;;11.32;41.61;100546.50;5034025;28;20460;-62
2021/04/23 05:42:30;;;;;;;16.50;4.32;;;;;;;11.56;41.11;100551.09;5035276;28;20030;-62
2021/04/23 05:44:56;;;;;;;10.05;4.38;;;;;;;12.26;39.91;100550.97;5035459;28;20068;-62
2021/04/23 05:47:22;;;;;;;15.73;5.05;;;;;;;11.57;41.30;100562.66;5035007;28;20037;-62
2021/04/23 05:49:47;;;;;;;10.07;4.40;;;;;;;11.65;40.95;100562.38;5034886;28;20025;-62
2021/04/23 05:52:13;;;;;;;13.07;4.38;;;;;;;12.46;39.61;100568.78;5034960;28;20029;-62
2021/04/23 05:54:38;;;;;;;8.77;4.10;;;;;;;11.73;40.98;100561.28;5035332;28;20132;-62
2021/04/23 05:57:04;;;;;;;10.75;4.30;;;;;;;12.90;38.58;100564.16;5033595;28;20464;-63
2021/04/23 05:59:29;;;;;;;9.13;4.20;;;;;;;11.90;40.42;100569.69;5035059;28;20033;-62
2021/04/23 06:01:55;;;;;;;12.77;4.35;;;;;;;12.29;40.26;100569.34;5034908;28;20079;-63
2021/04/23 06:04:21;;;;;;;11.40;4.63;;;;;;;13.57;37.25;100570.34;5034062;28;20455;-62
2021/04/23 06:06:46;;;;;;;11.13;4.43;;;;;;;12.76;38.78;100571.56;5034582;28;20400;-62
2021/04/23 06:09:11;;;;;;;10.75;6.25;;;;;;;13.41;37.96;100571.00;5034955;28;20025;-63
2021/04/23 06:11:37;;;;;;;13.48;5.45;;;;;;;12.94;38.91;100570.75;5034967;28;20032;-63
2021/04/23 06:14:03;;;;;;;12.13;5.32;;;;;;;14.05;36.82;100565.88;5033774;28;20357;-62
2021/04/23 06:16:29;;;;;;;10.15;5.30;;;;;;;14.23;35.87;100573.88;5034623;28;20033;-63
2021/04/23 06:18:54;;;;;;;10.10;4.40;;;;;;;13.42;36.77;100577.22;5034646;28;20067;-63
2021/04/23 06:21:20;;;;;;;13.20;5.82;;;;;;;11.59;42.02;100574.00;5034697;28;20030;-63
2021/04/23 06:23:45;;;;;;;18.30;5.13;;;;;;;11.36;42.68;100569.19;5033455;28;20532;-62
2021/04/23 06:26:11;;;;;;;9.05;4.80;;;;;;;13.09;38.80;100573.06;5034132;28;20456;-62
2021/04/23 06:28:36;;;;;;;11.82;6.70;;;;;;;13.30;38.72;100574.47;5016930;28;20117;-62
2021/04/23 06:31:02;;;;;;;12.07;5.07;;;;;;;13.66;36.67;100583.50;5034135;28;20458;-62
2021/04/23 06:33:36;;;;;;;8.32;4.82;;;;;;;14.15;36.81;100576.94;5034401;28;20112;-62
2021/04/23 06:36:02;;;;;;;8.65;4.43;;;;;;;13.92;36.67;100583.09;5034085;28;20025;-62
2021/04/23 06:38:28;;;;;;;10.98;4.70;;;;;;;14.12;36.46;100588.16;5034585;28;20443;-62
2021/04/23 06:40:53;;;;;;;9.20;4.43;;;;;;;13.47;37.25;100597.00;5032856;28;20109;-63
2021/04/23 06:43:19;;;;;;;10.40;4.63;;;;;;;14.74;35.34;100595.81;5033004;28;20032;-66
2021/04/23 06:45:45;;;;;;;11.43;4.72;;;;;;;13.30;37.67;100593.31;5033818;28;20025;-62
2021/04/23 06:48:11;;;;;;;13.63;4.60;;;;;;;12.74;39.13;100592.50;5033910;28;20025;-62
2021/04/23 06:50:37;;;;;;;9.45;4.18;;;;;;;13.55;36.88;100596.72;5033784;28;20072;-62
2021/04/23 06:53:02;;;;;;;7.80;4.32;;;;;;;13.91;37.23;100603.03;5034047;28;20021;-62
2021/04/23 06:55:28;;;;;;;7.00;3.95;;;;;;;13.49;37.75;100599.50;5033822;28;20037;-62
2021/04/23 06:57:53;;;;;;;6.60;4.15;;;;;;;13.53;37.17;100593.44;5034192;28;20029;-62
2021/04/23 07:00:31;;;;;;;10.45;4.38;;;;;;;14.87;34.15;100592.88;5033718;28;20014;-62
2021/04/23 07:02:57;;;;;;;9.57;4.25;;;;;;;13.93;36.59;100600.94;5032985;28;20033;-62
2021/04/23 07:05:22;;;;;;;8.07;3.70;;;;;;;15.55;32.68;100593.16;5033770;28;20411;-63
2021/04/23 07:07:48;;;;;;;9.63;4.10;;;;;;;14.23;35.28;100589.25;5033499;28;20431;-63
2021/04/23 07:10:15;;;;;;;10.73;3.58;;;;;;;14.80;34.20;100584.09;5033390;28;20026;-62
2021/04/23 07:12:40;;;;;;;6.15;3.70;;;;;;;13.76;35.89;100591.84;5032239;28;20498;-62
2021/04/23 07:15:08;;;;;;;10.88;4.70;;;;;;;13.86;35.60;100594.81;5033611;28;20038;-62
2021/04/23 07:17:33;;;;;;;10.18;4.10;;;;;;;13.08;37.74;100593.78;5033399;28;20017;-62
2021/04/23 07:19:59;;;;;;;10.32;4.05;;;;;;;16.65;31.39;100599.03;5033466;28;20048;-62
2021/04/23 07:22:24;;;;;;;8.52;4.20;;;;;;;16.50;31.30;100596.91;5033432;28;20025;-62
2021/04/23 07:24:49;;;;;;;7.30;3.90;;;;;;;14.75;33.74;100602.88;5033515;28;20379;-62
2021/04/23 07:27:15;;;;;;;6.40;3.50;;;;;;;15.39;33.20;100604.72;5033080;28;20036;-62
2021/04/23 07:29:40;;;;;;;7.38;3.60;;;;;;;15.73;31.63;100603.78;5033276;28;20033;-62
2021/04/23 07:32:06;;;;;;;6.13;3.75;;;;;;;15.92;31.78;100607.06;5031947;28;20079;-62
2021/04/23 07:34:31;;;;;;;7.90;3.70;;;;;;;15.99;31.49;100606.91;5033267;28;20479;-62
2021/04/23 07:36:57;;;;;;;10.68;4.03;;;;;;;15.71;31.12;100605.91;5032941;28;20034;-62
2021/04/23 07:39:26;;;;;;;6.15;3.58;;;;;;;14.12;35.27;100601.66;5033198;28;20029;-62
2021/04/23 07:41:53;;;;;;;7.38;3.60;;;;;;;13.64;35.37;100601.78;5032920;28;20048;-62
2021/04/23 07:44:19;;;;;;;8.65;3.63;;;;;;;13.87;35.29;100612.63;5031776;28;20534;-62
2021/04/23 07:46:44;;;;;;;6.53;3.40;;;;;;;13.99;34.41;100609.97;5032810;28;20101;-62
2021/04/23 07:49:10;;;;;;;10.57;3.83;;;;;;;13.47;34.88;100606.97;5033107;28;20498;-62
2021/04/23 07:51:35;;;;;;;6.22;3.30;;;;;;;14.07;35.12;100611.50;5031636;28;20021;-63
2021/04/23 07:54:00;;;;;;;6.70;3.25;;;;;;;14.67;33.01;100624.81;5033014;28;20036;-62
2021/04/23 07:56:26;;;;;;;7.70;3.40;;;;;;;14.92;32.47;100621.03;5032707;28;20030;-62
2021/04/23 07:58:51;;;;;;;8.35;4.00;;;;;;;13.27;35.29;100612.63;5033103;28;20017;-62
2021/04/23 08:01:17;;;;;;;8.20;3.60;;;;;;;13.54;35.77;100611.22;5031460;28;20025;-62
2021/04/23 08:03:42;;;;;;;7.97;3.90;;;;;;;10.73;40.60;100613.59;5032905;28;20056;-62
2021/04/23 08:06:08;;;;;;;8.63;4.10;;;;;;;11.41;39.81;100606.94;5032504;28;20041;-62
2021/04/23 08:08:33;;;;;;;6.78;3.40;;;;;;;12.20;38.76;100612.84;5032779;28;20029;-62
2021/04/23 08:10:58;;;;;;;8.70;4.32;;;;;;;12.67;36.85;100608.69;5031618;28;20034;-64
2021/04/23 08:13:24;;;;;;;7.38;3.70;;;;;;;12.93;36.81;100612.16;5034938;28;20052;-63
2021/04/23 08:15:50;;;;;;;6.60;3.67;;;;;;;12.94;36.08;100613.81;5036739;28;20025;-63
2021/04/23 08:18:15;;;;;;;6.32;3.97;;;;;;;13.26;34.67;100610.97;5036934;28;20395;-63
2021/04/23 08:20:41;;;;;;;7.78;3.28;;;;;;;13.69;36.02;100615.38;5036778;28;20065;-63
2021/04/23 08:23:06;;;;;;;6.07;3.70;;;;;;;12.77;35.66;100602.00;5035721;28;20029;-64
2021/04/23 08:25:32;;;;;;;6.22;3.80;;;;;;;13.58;35.06;100619.69;5036670;28;20036;-63
2021/04/23 08:27:57;;;;;;;7.78;3.85;;;;;;;12.71;36.17;100601.84;5036655;28;20120;-62
2021/04/23 08:30:24;;;;;;;7.32;4.25;;;;;;;11.70;39.37;100608.22;5036508;28;20029;-61
2021/04/23 08:32:50;;;;;;;6.90;4.07;;;;;;;12.29;38.41;100609.66;5036591;28;20029;-61
2021/04/23 08:35:15;;;;;;;9.10;4.15;;;;;;;13.60;35.83;100606.78;5036555;28;20079;-63
2021/04/23 08:37:41;;;;;;;7.80;3.75;;;;;;;14.32;33.17;100614.00;5036751;28;20108;-63
2021/04/23 08:40:07;;;;;;;8.73;4.00;;;;;;;14.33;33.10;100613.75;5036358;28;20022;-63
2021/04/23 08:42:33;;;;;;;7.80;3.80;;;;;;;12.59;37.05;100616.25;5036381;28;20025;-63
2021/04/23 08:44:59;;;;;;;7.97;4.10;;;;;;;11.45;38.41;100608.16;5035051;28;20033;-62
2021/04/23 08:47:25;;;;;;;6.47;3.72;;;;;;;13.78;33.34;100614.00;5034868;28;20037;-61
2021/04/23 08:49:51;;;;;;;8.65;4.30;;;;;;;14.26;33.30;100604.16;5036248;28;20053;-62
2021/04/23 08:52:17;;;;;;;9.52;4.32;;;;;;;13.91;33.97;100613.00;5034689;28;20048;-63
2021/04/23 08:54:44;;;;;;;8.02;3.53;;;;;;;14.51;32.98;100609.31;5018421;28;20029;-63
2021/04/23 08:57:09;;;;;;;12.82;4.10;;;;;;;13.25;34.31;100606.59;5034687;28;20028;-62
2021/04/23 08:59:34;;;;;;;9.00;3.38;;;;;;;15.11;31.72;100598.22;5034880;28;20026;-63
2021/04/23 09:02:01;;;;;;;8.45;4.28;;;;;;;13.37;34.66;100592.16;5035793;28;20026;-63
2021/04/23 09:04:26;;;;;;;7.97;4.05;;;;;;;13.35;35.49;100598.84;5036189;28;20021;-62
2021/04/23 09:07:06;;;;;;;7.10;4.07;;;;;;;13.86;33.23;100589.41;5035366;28;20037;-62
2021/04/23 09:09:36;;;;;;;7.45;3.95;;;;;;;13.45;34.85;100595.59;5036108;28;20026;-63
2021/04/23 09:12:16;;;;;;;7.72;3.80;;;;;;;13.98;34.31;100592.16;5034360;28;20037;-63
2021/04/23 09:14:41;;;;;;;6.90;3.90;;;;;;;14.48;33.35;100598.97;5036048;28;20032;-63
2021/04/23 09:17:07;;;;;;;8.68;4.10;;;;;;;15.11;31.37;100590.13;5034522;28;20026;-62
2021/04/23 09:19:33;;;;;;;7.97;3.65;;;;;;;14.63;33.91;100586.69;5036181;28;20022;-63
2021/04/23 09:22:01;;;;;;;10.02;3.72;;;;;;;14.19;32.58;100585.38;5034301;28;20035;-63
2021/04/23 09:24:32;;;;;;;7.43;3.70;;;;;;;13.38;33.95;100587.63;5034962;28;20055;-63
2021/04/23 09:26:59;;;;;;;7.63;4.25;;;;;;;12.81;35.08;100582.50;5035250;28;20032;-63
2021/04/23 09:29:32;;;;;;;7.70;4.13;;;;;;;13.32;34.85;100588.53;5035580;28;20056;-64
2021/04/23 09:32:09;;;;;;;6.75;3.75;;;;;;;13.45;34.72;100582.13;5034302;28;20027;-63
2021/04/23 09:34:46;;;;;;;7.53;4.07;;;;;;;11.58;37.42;100588.44;5035541;28;20487;-63
2021/04/23 09:37:11;;;;;;;7.55;3.88;;;;;;;13.29;34.77;100599.75;5035091;28;20468;-62
2021/04/23 09:39:37;;;;;;;8.02;4.05;;;;;;;12.91;36.06;100593.53;5034347;28;20029;-61
2021/04/23 09:42:05;;;;;;;6.90;3.85;;;;;;;12.67;37.54;100581.78;5034713;28;20025;-62
2021/04/23 09:44:32;;;;;;;5.88;3.72;;;;;;;13.35;34.62;100588.06;5034855;28;20071;-64
2021/04/23 09:47:00;;;;;;;7.65;4.15;;;;;;;12.34;37.62;100581.31;5035011;28;20095;-63
2021/04/23 09:49:25;;;;;;;8.40;4.20;;;;;;;14.33;33.88;100583.28;5033744;28;20021;-62
2021/04/23 09:51:51;;;;;;;7.55;3.85;;;;;;;14.49;33.26;100579.88;5034858;28;20033;-62
2021/04/23 09:54:21;;;;;;;9.13;4.30;;;;;;;13.64;34.45;100577.53;5033745;28;20030;-62
2021/04/23 09:56:47;;;;;;;6.07;4.25;;;;;;;13.60;34.47;100569.06;5034598;28;20065;-62
2021/04/23 09:59:14;;;;;;;5.88;3.72;;;;;;;13.98;33.96;100575.97;5034998;28;20550;-62
2021/04/23 10:01:56;;;;;;;6.53;4.10;;;;;;;11.93;37.36;100585.34;5034672;28;20480;-62
2021/04/23 10:04:26;;;;;;;10.77;4.68;;;;;;;11.08;41.41;100572.19;5013657;28;20021;-62
2021/04/23 10:07:23;;;;;;;10.40;4.20;;;;;;;14.35;34.42;100581.16;5014662;28;20046;-62
2021/04/23 10:10:01;;;;;;;8.88;4.10;;;;;;;14.84;32.49;100573.63;5015206;28;20085;-63
2021/04/23 10:13:06;;;;;;;9.15;4.35;;;;;;;14.88;32.49;100572.94;5018835;28;20021;-64
2021/04/23 10:15:40;;;;;;;8.85;4.05;;;;;;;14.93;32.06;100571.41;5012458;28;20029;-64
2021/04/23 10:18:10;;;;;;;9.68;4.18;;;;;;;14.31;34.03;100575.41;5012527;28;20022;-64
2021/04/23 10:20:42;;;;;;;6.05;3.72;;;;;;;14.29;32.64;100563.22;5024771;28;20502;-63
2021/04/23 10:23:10;;;;;;;8.20;4.18;;;;;;;12.01;36.99;100569.00;5034486;28;20067;-64
2021/04/23 10:25:35;;;;;;;6.65;4.25;;;;;;;12.04;36.72;100555.94;5033006;28;20021;-63
2021/04/23 10:28:03;;;;;;;6.50;4.35;;;;;;;11.83;39.00;100550.88;5032806;28;20021;-62
2021/04/23 10:30:33;;;;;;;8.90;4.15;;;;;;;13.74;35.83;100559.75;5034002;28;20026;-62
2021/04/23 10:33:00;;;;;;;5.20;3.72;;;;;;;13.69;35.82;100556.91;5034260;28;20018;-62
2021/04/23 10:35:26;;;;;;;7.65;4.18;;;;;;;12.60;37.34;100548.75;5033543;28;20025;-62
2021/04/23 10:37:52;;;;;;;7.93;4.28;;;;;;;13.11;35.53;100550.25;5032138;28;20017;-62
2021/04/23 10:40:20;;;;;;;7.40;4.03;;;;;;;13.86;36.69;100556.28;5032698;28;20021;-62
2021/04/23 10:42:53;;;;;;;8.20;3.85;;;;;;;13.50;35.13;100550.75;5032446;28;20033;-62
2021/04/23 10:45:26;;;;;;;8.15;3.85;;;;;;;14.97;32.62;100559.88;5033507;28;20021;-62
2021/04/23 10:47:54;;;;;;;7.45;3.47;;;;;;;14.30;32.62;100546.78;5032951;28;20116;-65
2021/04/23 10:50:25;;;;;;;6.03;3.53;;;;;;;14.21;33.10;100545.53;5033817;28;20414;-63
2021/04/23 10:53:07;;;;;;;7.32;3.25;;;;;;;14.38;31.28;100543.75;5034353;28;20057;-64
2021/04/23 10:55:43;;;;;;;6.22;3.60;;;;;;;13.39;33.15;100543.47;5031960;28;20033;-62
2021/04/23 10:58:09;;;;;;;5.57;3.28;;;;;;;14.76;31.34;100547.84;5033914;28;20125;-62
2021/04/23 11:00:39;;;;;;;5.32;3.50;;;;;;;13.10;33.49;100542.38;5033264;28;20030;-62
2021/04/23 11:03:20;;;;;;;7.35;3.80;;;;;;;13.38;33.64;100545.38;5033979;28;20025;-62
2021/04/23 11:05:49;;;;;;;5.10;3.28;;;;;;;14.31;34.11;100553.03;5033056;28;20099;-62
2021/04/23 11:08:14;;;;;;;8.50;3.72;;;;;;;15.23;30.69;100542.31;5033632;28;20025;-62
2021/04/23 11:11:07;;;;;;;5.20;3.55;;;;;;;14.99;31.23;100538.03;5033221;28;20448;-62
2021/04/23 11:13:33;;;;;;;10.90;3.40;;;;;;;15.23;30.75;100536.09;5010883;28;20041;-62
2021/04/23 11:16:17;;;;;;;6.85;3.53;;;;;;;13.07;33.78;100540.16;5024899;28;20048;-62
2021/04/23 11:18:44;;;;;;;6.70;3.75;;;;;;;11.81;36.28;100535.00;5033562;28;20052;-62
2021/04/23 11:21:31;;;;;;;7.13;3.90;;;;;;;11.47;36.43;100522.84;5032764;28;20120;-62
2021/04/23 11:24:22;;;;;;;7.28;3.88;;;;;;;12.51;35.65;100528.63;5033462;28;20057;-62
2021/04/23 11:27:09;;;;;;;6.15;3.30;;;;;;;13.80;32.04;100525.66;5032944;28;20044;-62
2021/04/23 11:29:50;;;;;;;9.65;3.80;;;;;;;14.70;30.20;100529.06;5033295;28;20125;-62
2021/04/23 11:32:22;;;;;;;6.57;3.20;;;;;;;15.41;29.24;100524.25;5013307;28;20129;-62